Thursday, October 19, 2017, 2:18 PM EDT
Back to Local

KMPO, Mt Pocono Pocono Mountains

Location: Pocono Summit, PA, United States Lat: 41.133
Local Time: 2:18 PM EDT (18:18 GMT) Lon: -75.383
Time Zone: US/Eastern Elev: 1915 ft

Show me the last for .
Show Decoded

2017-10-19 13:53 METAR KMPO 191753Z AUTO 24010KT 10SM CLR 19/05 A3015 RMK AO2 SLP209 T01890050
                 10189 20089 58024 =
2017-10-19 12:53 METAR KMPO 191653Z AUTO 25011KT 10SM CLR 18/06 A3019 RMK AO2 SLP224 T01780056 =
2017-10-19 11:53 METAR KMPO 191553Z AUTO 26010KT 10SM CLR 17/04 A3021 RMK AO2 SLP230 T01670044 =
2017-10-19 10:53 METAR KMPO 191453Z AUTO 24010KT 10SM CLR 16/04 A3022 RMK AO2 SLP236 T01560044
                 58002 =
2017-10-19 09:53 METAR KMPO 191353Z AUTO 25010KT 10SM CLR 14/05 A3023 RMK AO2 SLP241 T01390050 =
2017-10-19 08:53 METAR KMPO 191253Z AUTO 25008KT 10SM CLR 12/05 A3024 RMK AO2 SLP243 T01170050 =
2017-10-19 07:53 METAR KMPO 191153Z AUTO 29005KT 10SM CLR 08/04 A3023 RMK AO2 SLP242 T00830044
                 10089 20072 56005 =
2017-10-19 06:53 METAR KMPO 191053Z AUTO 27005KT 10SM CLR 08/04 A3023 RMK AO2 SLP241 T00780044 =
2017-10-19 05:53 METAR KMPO 190953Z AUTO 28006KT 10SM CLR 08/05 A3024 RMK AO2 SLP243 T00780050 =
2017-10-19 04:53 METAR KMPO 190853Z AUTO 27007KT 10SM CLR 08/06 A3025 RMK AO2 SLP243 T00830056
                 55005 =
2017-10-19 03:53 METAR KMPO 190753Z AUTO 27005KT 10SM CLR 09/06 A3025 RMK AO2 SLP242 T00890056 =
2017-10-19 02:53 METAR KMPO 190653Z AUTO 29004KT 10SM CLR 08/05 A3026 RMK AO2 SLP245 T00830050 =
2017-10-19 01:53 METAR KMPO 190553Z AUTO 27005KT 10SM CLR 08/06 A3026 RMK AO2 SLP248 T00780056
                 10111 20072 58009 =
2017-10-19 00:53 METAR KMPO 190453Z AUTO 27004KT 10SM CLR 07/06 A3027 RMK AO2 SLP253 T00720056
                 401890039 =
2017-10-18 23:53 METAR KMPO 190353Z AUTO 28004KT 10SM CLR 09/06 A3028 RMK AO2 SLP256 T00940061 =
2017-10-18 22:53 METAR KMPO 190253Z AUTO 28004KT 10SM CLR 09/06 A3029 RMK AO2 SLP260 T00940061
                 58000 =
2017-10-18 21:53 METAR KMPO 190153Z AUTO 30003KT 10SM CLR 09/06 A3030 RMK AO2 SLP266 T00940061 =
2017-10-18 20:53 METAR KMPO 190053Z AUTO 26004KT 10SM CLR 09/07 A3030 RMK AO2 SLP269 T00890072 =
2017-10-18 19:53 METAR KMPO 182353Z AUTO 26004KT 10SM CLR 11/07 A3029 RMK AO2 SLP267 T01110072
                 10189 20106 53006 =
2017-10-18 18:53 METAR KMPO 182253Z AUTO 24004KT 10SM CLR 14/07 A3028 RMK AO2 SLP261 T01390072 =
2017-10-18 17:53 METAR KMPO 182153Z AUTO 28004KT 10SM CLR 17/05 A3027 RMK AO2 SLP255 T01670050 =
2017-10-18 16:53 METAR KMPO 182053Z AUTO 27010KT 10SM CLR 18/04 A3027 RMK AO2 SLP255 T01830044
                 56009 =
2017-10-18 15:53 METAR KMPO 181953Z AUTO 26008KT 10SM CLR 19/06 A3028 RMK AO2 SLP255 T01890056 =
2017-10-18 14:53 METAR KMPO 181853Z AUTO 25009KT 210V270 10SM CLR 19/06 A3029 RMK AO2 SLP259
                 T01890061 =

Support USWX by starting your Amazon purchase here.